x

New London Ledge Ct - Ledge Light Weather Station (ldlc3) Weather Station

5:25am - Sat 18th Nov 2017 All times are EST. -5 hours from GMT.

  • Wind
    6mph, 7mph gusts
  • Air Temp 35°f
  • Sea Pressure 1015.1mb
  • New London Ledge Ct - Ledge Light Weather Station
  • New London Ledge Ct - Ledge Light Weather Station

More Historic Weather Station data

Upgrade to MSW Pro to gain access to the past 30 days of data for over 8000 Wavebouys and Weather Stations around the globe.

Join

Comparision Forecast

View Surf forecast
   
Sat 11/18 5:25am 6 7 mph 1015.1mb 35f
5:10am 3 6 mph 1014.9mb 34f
5:00am 3 7 mph 1014.7mb 35f
4:45am 6 7 mph 1014.7mb 35f
4:25am 7 8 mph 1015.1mb 35f
4:15am 10 11 mph 1015.2mb 36f
4:00am 10 13 mph 1015.2mb 36f
3:40am 6 7 mph 1015.1mb 35f
3:25am 5 6 mph 1015.1mb 35f
3:15am 5 7 mph 1015.2mb 35f
3:00am 6 7 mph 1015.5mb 35f
2:40am 9 10 mph 1015.9mb 35f
2:25am 9 11 mph 1016mb 36f
1:45am 10 13 mph 1016.4mb 36f
1:40am 9 11 mph 1016.3mb 36f
1:30am 7 9 mph 1016mb 37f
1:15am 7 9 mph 1016mb 37f
12:55am 7 9 mph 1016.3mb 36f
12:40am 9 11 mph 1016.4mb 37f
12:30am 9 13 mph 1016.5mb 37f
12:15am 14 17 mph 1016.4mb 37f
Fri 11/17 6:45pm 13 15 mph 1016mb 41f
6:25pm 8 9 mph 1016.2mb 41f
6:15pm 10 13 mph 1016.2mb 41f
5:55pm 8 11 mph 1016.3mb 42f
5:45pm 9 13 mph 1016.2mb 42f
5:30pm 10 15 mph 1016.1mb 42f
5:15pm 16 20 mph 1015.7mb 43f
5:00pm 14 16 mph 1015.7mb 43f
4:45pm 14 17 mph 1015.4mb 43f
4:30pm 18 23 mph 1015.2mb 43f
4:15pm 21 30 mph 1015.1mb 44f
4:00pm 18 25 mph 1014.8mb 44f
3:45pm 17 24 mph 1014.8mb 44f
3:30pm 21 28 mph 1014.3mb 44f
3:15pm 22 28 mph 1014.2mb 44f
3:00pm 22 26 mph 1013.9mb 44f
2:45pm 24 32 mph 1013.6mb 44f
2:30pm 28 34 mph 1013.5mb 44f
2:15pm 24 30 mph 1013.5mb 44f
2:00pm 21 25 mph 1013.4mb 44f
1:45pm 28 32 mph 1013.2mb 44f
1:30pm 28 34 mph 1012.9mb 44f
1:15pm 23 30 mph 1012.9mb 44f
1:00pm 18 24 mph 1013.1mb 44f
12:45pm 21 30 mph 1013.1mb 44f
12:30pm 20 25 mph 1013.1mb 44f
12:15pm 21 29 mph 1013.1mb 44f
12:00pm 26 33 mph 1012.9mb 43f
11:45am 24 30 mph 1012.9mb 43f
11:30am 21 30 mph 1013.3mb 43f
11:15am 32 41 mph 1013.2mb 42f
11:00am 23 32 mph 1013.4mb 42f
10:45am 29 37 mph 1013.5mb 41f
10:30am 23 32 mph 1013.8mb 42f
10:15am 23 29 mph 1013.7mb 41f
10:00am 26 39 mph 1013.7mb 41f
9:45am 25 31 mph 1013.7mb 41f
9:30am 29 37 mph 1013.3mb 41f
9:15am 25 32 mph 1013.3mb 41f
9:00am 25 33 mph 1013.1mb 41f
8:45am 30 36 mph 1012.9mb 40f
8:30am 26 34 mph 1012.9mb 40f
8:15am 22 30 mph 1012.9mb 40f
8:00am 22 32 mph 1013mb 40f
7:45am 24 31 mph 1012.9mb 40f
7:30am 23 31 mph 1012.8mb 40f
7:15am 22 33 mph 1012.5mb 40f
7:00am 23 30 mph 1012mb 40f
6:45am 24 39 mph 1011.6mb 40f
6:30am 22 31 mph 1011.3mb 40f
6:15am 25 32 mph 1010.9mb 40f
6:00am 24 31 mph 1010.8mb 40f
5:45am 26 38 mph 1010.4mb 41f
5:30am 26 39 mph 1010.2mb 41f
5:15am 33 41 mph 1009.5mb 42f
5:00am 26 37 mph 1009.5mb 42f
4:45am 18 23 mph 1009.5mb 42f
4:30am 18 24 mph 1009.2mb 42f
4:15am 18 26 mph 1009.1mb 43f
4:00am 23 31 mph 1008.6mb 43f
3:45am 21 28 mph 1008.6mb 43f
3:30am 21 28 mph 1008.6mb 43f
3:15am 18 22 mph 1008.8mb 43f
3:00am 17 23 mph 1009.1mb 43f
2:45am 24 30 mph 1008.7mb 44f
2:30am 21 26 mph 1008.7mb 44f
2:15am 21 26 mph 1008.7mb 44f
2:00am 21 25 mph 1008.6mb 44f
1:45am 21 25 mph 1008.3mb 44f
1:30am 20 24 mph 1008.2mb 44f
1:15am 20 24 mph 1008mb 44f
1:00am 20 24 mph 1008mb 44f
12:45am 17 22 mph 1008mb 44f
12:30am 16 22 mph 1007.9mb 44f
12:15am 14 16 mph 1007.9mb 44f
12:00am 15 20 mph 1008mb 44f
Thu 11/16 6:45pm 18 22 mph 1006.9mb 49f
6:30pm 18 23 mph 1006.9mb 50f
6:15pm 17 21 mph 1006.9mb 50f
6:00pm 17 22 mph 1006.8mb 51f
5:45pm 20 23 mph 1006.3mb 51f
5:30pm 15 23 mph 1006mb 51f
5:15pm 15 20 mph 1005.9mb 50f
5:00pm 32
mph
1005.5mb 53f
4:45pm 14 15 mph 1005.6mb 54f
4:30pm 13 16 mph 1005.4mb 54f
4:15pm 13 15 mph 1005.3mb 54f
4:00pm 10 11 mph 1005.3mb 54f
3:45pm 15 17 mph 1005.2mb 54f
3:30pm 16 20 mph 1005mb 54f
3:15pm 16 20 mph 1005.2mb 54f
3:00pm 20 23 mph 1005.2mb 54f
2:45pm 17 21 mph 1005.3mb 54f
2:30pm 15 17 mph 1005.4mb 54f
2:15pm 9 14 mph 1005.4mb 54f
2:00pm 8 10 mph 1005.7mb 53f
1:45pm 6 7 mph 1005.5mb 54f
1:30pm 6 7 mph 1005.7mb 52f
1:15pm 7 8 mph 1006.1mb 52f
1:00pm 7 9 mph 1006.5mb 52f
12:45pm 7 8 mph 1006.6mb 52f
12:30pm 9 10 mph 1006.8mb 52f
12:15pm 10 11 mph 1007mb 52f
12:00pm 13 14 mph 1007.5mb 52f
11:45am 14 16 mph 1008mb 51f
11:30am 14 16 mph 1008.4mb 50f
11:15am 22 28 mph 1008mb 55f
11:00am 31 34 mph 1007.4mb 55f
10:45am 30 37 mph 1008mb 55f
10:30am 30 33 mph 1008.4mb 55f
10:15am 29 32 mph 1009.2mb 55f
10:00am 30 33 mph 1009.3mb 54f
9:45am 30 34 mph 1009.6mb 55f
9:30am 30 32 mph 1009.8mb 55f
9:15am 26 31 mph 1010.1mb 55f
9:00am 30 34 mph 1010.2mb 55f
8:45am 30 36 mph 1010.5mb 55f
8:30am 31 34 mph 1010.7mb 55f
8:15am 28 32 mph 1011mb 55f
8:00am 28 32 mph 1011.3mb 54f
7:45am 28 30 mph 1011.6mb 54f
7:30am 24 28 mph 1011.9mb 54f
7:15am 26 31 mph 1012mb 54f
6:55am 25 29 mph 1011.9mb 53f
6:45am 25 30 mph 1012mb 53f
6:30am 24 28 mph 1012.7mb 53f
5:50am 25 29 mph 1013.2mb 53f
5:40am 25 30 mph 1013.1mb 53f
5:30am 24 29 mph 1013.4mb 53f
5:15am 25 28 mph 1013.4mb 53f
5:00am 25 28 mph 1013.5mb 53f
4:40am 24 28 mph 1013.9mb 53f
4:30am 22 26 mph 1014.5mb 52f
4:15am 20 25 mph 1014.9mb 52f
3:55am 17 21 mph 1015.1mb 52f
3:45am 17 21 mph 1015.2mb 52f
3:30am 10 14 mph 1015.6mb 47f
3:10am 7 10 mph 1015.8mb 46f
2:55am 11 13 mph 1015.8mb 46f
2:45am 13 14 mph 1015.9mb 46f
2:25am 11 14 mph 1016.4mb 46f
2:15am 11 13 mph 1016.4mb 45f
2:00am 9 10 mph 1016.8mb 45f
1:45am 8 10 mph 1016.9mb 44f
1:30am 10 13 mph 1017.1mb 44f
1:15am 8 10 mph 1017.3mb 43f
12:55am 7 10 mph 1017.6mb 43f
12:45am 6 9 mph 1017.9mb 43f
12:30am 6 8 mph 1018.2mb 43f
12:10am 8 9 mph 1018.5mb 43f
12:00am 7 9 mph 1018.8mb 43f
Wed 11/15 6:55pm 7 9 mph 1021.2mb 46f
6:25pm 10 14 mph 1021.2mb 47f
6:15pm 10 13 mph 1021.3mb 47f
5:55pm 9 13 mph 1021.3mb 47f
5:40pm 11 13 mph 1021.5mb 47f
5:30pm 10 13 mph 1021.6mb 47f
5:15pm 9 11 mph 1021.8mb 47f
5:00pm 9 13 mph 1021.8mb 46f
4:45pm 9 14 mph 1021.8mb 46f
4:30pm 9 14 mph 1021.6mb 47f
4:15pm 10 13 mph 1021.5mb 47f
4:00pm 11 14 mph 1021.4mb 47f
3:45pm 10 13 mph 1021.5mb 47f
3:30pm 11 14 mph 1021.7mb 47f
3:15pm 10 13 mph 1021.7mb 47f
3:00pm 10 14 mph 1021.6mb 47f
2:45pm 8 13 mph 1021.6mb 47f
2:30pm 9 13 mph 1021.4mb 47f
2:15pm 10 13 mph 1021.6mb 47f
2:00pm 8 10 mph 1021.9mb 47f
1:45pm 7 11 mph 1022.3mb 47f
1:30pm 8 11 mph 1022.4mb 46f
1:15pm 8 11 mph 1022.5mb 46f
1:00pm 9 10 mph 1022.6mb 46f
12:45pm 8 11 mph 1022.8mb 46f
12:30pm 9 11 mph 1022.9mb 46f
12:15pm 9 11 mph 1023mb 46f
12:00pm 8 11 mph 1023.2mb 45f
11:45am 7 11 mph 1023.5mb 45f
11:30am 9 11 mph 1023.6mb 45f
11:15am 8 11 mph 1024.1mb 45f
11:00am 8 11 mph 1024.4mb 44f
10:45am 8 11 mph 1024.9mb 44f
10:30am 8 11 mph 1025.2mb 44f
10:15am 6 10 mph 1025.6mb 44f
10:00am 8 11 mph 1025.7mb 42f
9:45am 8 13 mph 1025.8mb 42f
9:30am 8 13 mph 1025.7mb 42f
8:10am 14 16 mph 1025.8mb 37f
8:00am 13 16 mph 1025.8mb 37f
7:45am 14 16 mph 1025.8mb 37f
7:30am 13 16 mph 1025.7mb 36f
7:10am 14 16 mph 1025.4mb 36f
7:00am 14 16 mph 1025.3mb 36f
6:40am 13 16 mph 1025.2mb 35f
6:30am 14 17 mph 1025.2mb 35f
6:10am 13 15 mph 1025.2mb 36f
6:00am 11 16 mph 1025.2mb 36f
5:40am 13 15 mph 1025.1mb 36f
5:30am 13 16 mph 1025mb 36f
3:05am 14 16 mph 1024.8mb 37f
2:55am 14 16 mph 1024.8mb 37f
2:45am 13 15 mph 1024.8mb 37f
2:25am 11 14 mph 1024.9mb 38f
2:15am 13 15 mph 1024.9mb 38f
2:00am 13 16 mph 1024.8mb 38f
1:45am 13 15 mph 1024.7mb 38f
1:30am 14 17 mph 1024.7mb 38f
1:15am 14 17 mph 1024.7mb 38f
1:00am 14 17 mph 1024.7mb 39f
12:40am 15 20 mph 1024.8mb 39f
12:30am 15 16 mph 1024.8mb 39f
12:10am 14 16 mph 1025mb 39f
12:00am 14 16 mph 1025mb 39f
Tue 11/14 6:55pm 11 14 mph 1025.1mb 42f
6:45pm 11 15 mph 1025.1mb 42f
6:25pm 13 15 mph 1025.1mb 42f
6:15pm 13 16 mph 1025.2mb 42f
6:00pm 11 16 mph 1025.3mb 42f
5:40pm 14 16 mph 1025.1mb 42f
5:30pm 13 15 mph 1025.1mb 42f
5:10pm 13 17 mph 1025.2mb 42f
4:55pm 11 17 mph 1025.1mb 42f
4:25pm 10 15 mph 1024.8mb 43f
4:10pm 10 15 mph 1024.7mb 43f
4:00pm 13 18 mph 1024.5mb 43f
3:45pm 13 16 mph 1024.4mb 43f
3:25pm 15 20 mph 1024.4mb 43f
3:10pm 16 18 mph 1024.4mb 43f
2:55pm 10 13 mph 1024.4mb 43f
2:45pm 14 16 mph 1024.4mb 43f
2:30pm 10 15 mph 1024.6mb 43f
1:55pm 11 16 mph 1024.7mb 43f
1:45pm 10 15 mph 1024.7mb 43f
1:30pm 14 17 mph 1024.8mb 43f
1:10pm 11 16 mph 1024.8mb 43f
12:55pm 11 15 mph 1024.8mb 43f
12:45pm 10 14 mph 1024.8mb 43f
12:30pm 14 18 mph 1024.8mb 43f
12:15pm 13 17 mph 1025mb 43f
12:00pm 15 18 mph 1025.1mb 43f
11:45am 15 18 mph 1025.1mb 43f
11:30am 13 16 mph 1025.3mb 43f